createdAt,value
2022-12-28T00:01:32.732Z,6.95
2022-12-28T00:04:02.735Z,5.75
2022-12-28T00:06:30.193Z,8.05
2022-12-28T00:08:57.750Z,9.45
2022-12-28T00:11:28.021Z,6.90
2022-12-28T00:14:01.801Z,7.47
2022-12-28T00:16:38.059Z,12.85
2022-12-28T00:19:10.077Z,11.07
2022-12-28T00:21:37.200Z,7.78
2022-12-28T00:24:04.920Z,12.02
2022-12-28T00:26:34.747Z,8.30
2022-12-28T00:29:05.348Z,7.47
2022-12-28T00:31:34.486Z,9.68
2022-12-28T00:34:02.999Z,9.55
2022-12-28T00:37:10.000Z,13.18
2022-12-28T00:39:20.192Z,6.20
2022-12-28T00:41:47.550Z,10.30
2022-12-28T00:44:14.336Z,9.38
2022-12-28T00:46:41.481Z,8.25
2022-12-28T00:49:08.269Z,8.05
2022-12-28T00:51:35.185Z,10.75
2022-12-28T00:54:01.958Z,10.75
2022-12-28T00:56:28.754Z,11.55
2022-12-28T00:58:58.731Z,9.95
2022-12-28T01:01:27.952Z,13.95
2022-12-28T01:03:59.696Z,9.35
2022-12-28T01:06:28.422Z,8.15
2022-12-28T01:08:55.796Z,13.82
2022-12-28T01:11:26.709Z,10.80
2022-12-28T01:13:55.996Z,10.38
2022-12-28T01:16:27.061Z,8.32
2022-12-28T01:18:57.369Z,9.88
2022-12-28T01:21:27.320Z,10.05
2022-12-28T01:23:58.486Z,6.35
2022-12-28T01:26:26.172Z,9.10
2022-12-28T01:28:53.068Z,9.68
2022-12-28T01:31:21.832Z,9.52
2022-12-28T01:33:49.437Z,10.45
2022-12-28T01:36:29.917Z,10.88
2022-12-28T01:39:00.249Z,9.18
2022-12-28T01:41:30.197Z,7.40
2022-12-28T01:43:56.928Z,8.85
2022-12-28T01:46:29.697Z,10.48
2022-12-28T01:49:08.879Z,10.30
2022-12-28T01:52:11.515Z,13.45
2022-12-28T01:55:06.715Z,8.93
2022-12-28T01:57:58.439Z,9.98
2022-12-28T02:00:27.013Z,8.90
2022-12-28T02:03:07.238Z,7.57
2022-12-28T02:05:40.500Z,7.22
2022-12-28T02:08:41.484Z,8.95
2022-12-28T02:11:13.781Z,13.85
2022-12-28T02:13:45.074Z,11.50
2022-12-28T02:16:12.482Z,6.32
2022-12-28T02:18:43.125Z,7.57
2022-12-28T02:21:10.515Z,7.22
2022-12-28T02:24:17.866Z,10.48
2022-12-28T02:26:52.005Z,11.82
2022-12-28T02:29:27.953Z,8.83
2022-12-28T02:32:11.059Z,8.43
2022-12-28T02:35:07.936Z,9.02
2022-12-28T02:37:48.028Z,7.82
2022-12-28T02:40:22.803Z,10.88
2022-12-28T02:42:51.543Z,9.73
2022-12-28T02:45:51.526Z,10.98
2022-12-28T02:48:37.131Z,5.38
2022-12-28T02:51:10.792Z,8.40
2022-12-28T02:53:49.786Z,11.73
2022-12-28T02:56:32.652Z,7.85
2022-12-28T02:59:20.502Z,8.07
2022-12-28T03:02:11.804Z,9.73
2022-12-28T03:04:56.170Z,12.95
2022-12-28T03:07:56.979Z,8.85
2022-12-28T03:10:50.198Z,11.43
2022-12-28T03:13:51.335Z,10.63
2022-12-28T03:16:33.080Z,14.75
2022-12-28T03:19:25.518Z,13.55
2022-12-28T03:22:14.868Z,10.48
2022-12-28T03:25:04.418Z,15.05
2022-12-28T03:27:51.941Z,9.77
2022-12-28T03:30:39.764Z,10.57
2022-12-28T03:33:09.864Z,12.77
2022-12-28T03:36:09.894Z,10.50
2022-12-28T03:38:55.112Z,8.52
2022-12-28T03:41:37.784Z,10.27
2022-12-28T03:44:33.075Z,8.63
2022-12-28T03:47:09.982Z,7.50
2022-12-28T03:49:37.540Z,9.82
2022-12-28T03:52:06.054Z,9.20
2022-12-28T03:54:32.998Z,5.78
2022-12-28T03:56:59.858Z,7.18
2022-12-28T03:59:26.674Z,11.15
2022-12-28T04:01:53.573Z,8.57
2022-12-28T04:04:20.779Z,5.88
2022-12-28T04:06:47.594Z,7.93
2022-12-28T04:09:14.355Z,8.68
2022-12-28T04:11:41.178Z,9.98
2022-12-28T04:14:10.962Z,6.57
2022-12-28T04:16:38.497Z,8.52
2022-12-28T04:19:05.502Z,8.52
2022-12-28T04:21:32.335Z,13.98
2022-12-28T04:23:59.098Z,10.20
2022-12-28T04:26:25.853Z,7.70
2022-12-28T04:28:52.972Z,7.03
2022-12-28T04:31:19.779Z,6.68
2022-12-28T04:33:46.616Z,7.60
2022-12-28T04:36:16.780Z,7.05
2022-12-28T04:38:43.815Z,8.32
2022-12-28T04:41:11.791Z,8.48
2022-12-28T04:43:40.677Z,10.23
2022-12-28T04:46:13.221Z,6.05
2022-12-28T04:48:40.159Z,9.20
2022-12-28T04:51:10.509Z,6.65
2022-12-28T04:53:41.597Z,9.05
2022-12-28T04:56:10.445Z,5.22
2022-12-28T04:58:38.522Z,7.00
2022-12-28T05:01:13.120Z,8.52
2022-12-28T05:03:43.244Z,9.02
2022-12-28T05:06:16.247Z,6.47
2022-12-28T05:08:44.577Z,8.73
2022-12-28T05:11:16.118Z,8.45
2022-12-28T05:13:43.343Z,9.45
2022-12-28T05:16:14.226Z,8.77
2022-12-28T05:18:41.291Z,8.35
2022-12-28T05:21:21.120Z,6.10
2022-12-28T05:23:49.371Z,7.85
2022-12-28T05:26:19.916Z,7.90
2022-12-28T05:28:47.799Z,11.02
2022-12-28T05:31:19.260Z,13.70
2022-12-28T05:33:47.604Z,12.38
2022-12-28T05:36:21.795Z,7.43
2022-12-28T05:38:49.127Z,7.57
2022-12-28T05:41:18.828Z,8.77
2022-12-28T05:43:46.419Z,15.00
2022-12-28T05:46:38.367Z,13.52
2022-12-28T05:49:09.203Z,8.15
2022-12-28T05:51:37.348Z,10.95
2022-12-28T05:54:06.425Z,12.57
2022-12-28T05:56:34.603Z,15.63
2022-12-28T05:59:07.176Z,10.80
2022-12-28T06:01:40.309Z,8.48
2022-12-28T06:04:19.945Z,9.10
2022-12-28T06:06:48.432Z,12.48
2022-12-28T06:09:15.781Z,16.58
2022-12-28T06:11:43.162Z,15.00
2022-12-28T06:14:10.031Z,10.40
2022-12-28T06:16:41.661Z,17.73
2022-12-28T06:19:12.206Z,12.07
2022-12-28T06:21:41.062Z,12.18
2022-12-28T06:24:09.286Z,7.93
2022-12-28T06:26:38.479Z,13.05
2022-12-28T06:29:05.795Z,16.95
2022-12-28T06:31:36.106Z,9.68
2022-12-28T06:34:06.080Z,15.60
2022-12-28T06:36:37.309Z,12.88
2022-12-28T06:39:08.549Z,12.65
2022-12-28T06:41:35.700Z,11.52
2022-12-28T06:44:06.522Z,10.27
2022-12-28T06:46:33.773Z,18.35
2022-12-28T06:49:00.807Z,11.85
2022-12-28T06:51:39.010Z,9.18
2022-12-28T06:54:06.104Z,10.07
2022-12-28T06:56:35.609Z,12.88
2022-12-28T06:59:04.320Z,12.05
2022-12-28T07:01:36.019Z,11.13
2022-12-28T07:04:05.570Z,14.00
2022-12-28T07:06:38.282Z,18.73
2022-12-28T07:09:09.871Z,12.05
2022-12-28T07:11:37.598Z,13.05
2022-12-28T07:14:04.770Z,15.27
2022-12-28T07:18:59.794Z,17.05
2022-12-28T07:21:34.004Z,16.63
2022-12-28T07:24:01.892Z,20.63
2022-12-28T07:26:31.261Z,24.55
2022-12-28T07:29:01.434Z,19.60
2022-12-28T07:31:39.735Z,19.77
2022-12-28T07:34:08.789Z,21.85
2022-12-28T07:36:35.710Z,18.13
2022-12-28T07:39:02.490Z,18.02
2022-12-28T07:41:34.214Z,18.85
2022-12-28T07:44:01.518Z,21.38
2022-12-28T07:46:35.017Z,25.75
2022-12-28T07:49:02.107Z,17.05
2022-12-28T07:51:32.342Z,21.08
2022-12-28T07:54:00.555Z,18.60
2022-12-28T07:56:30.235Z,14.00
2022-12-28T07:59:03.787Z,14.85
2022-12-28T08:01:33.536Z,21.70
2022-12-28T08:04:05.415Z,10.75
2022-12-28T08:06:40.464Z,18.60
2022-12-28T08:11:40.464Z,17.10
2022-12-28T08:14:08.824Z,17.95
2022-12-28T08:16:39.973Z,12.25
2022-12-28T08:19:08.516Z,14.93
2022-12-28T08:21:42.570Z,11.18
2022-12-28T08:24:14.895Z,9.63
2022-12-28T08:26:41.907Z,9.93
2022-12-28T08:29:14.621Z,10.68
2022-12-28T08:31:43.972Z,9.13
2022-12-28T08:34:22.996Z,11.65
2022-12-28T08:36:50.268Z,11.68
2022-12-28T08:39:17.280Z,7.57
2022-12-28T08:41:44.127Z,12.23
2022-12-28T08:44:11.153Z,10.18
2022-12-28T08:46:38.227Z,13.27
2022-12-28T08:49:06.046Z,10.43
2022-12-28T08:51:37.352Z,10.95
2022-12-28T08:54:04.509Z,14.88
2022-12-28T08:56:38.372Z,13.50
2022-12-28T08:59:06.859Z,14.48
2022-12-28T09:01:44.354Z,14.50
2022-12-28T09:04:18.612Z,11.35
2022-12-28T09:06:46.281Z,11.75
2022-12-28T09:09:16.712Z,9.68
2022-12-28T09:11:44.820Z,11.38
2022-12-28T09:14:22.111Z,12.00
2022-12-28T09:16:51.165Z,12.18
2022-12-28T09:19:18.242Z,13.90
2022-12-28T09:21:49.064Z,10.55
2022-12-28T09:24:16.327Z,11.43
2022-12-28T09:26:43.656Z,12.60
2022-12-28T09:29:13.818Z,13.15
2022-12-28T09:31:41.612Z,9.27
2022-12-28T09:37:00.578Z,5.88
2022-12-28T09:39:28.267Z,6.32
2022-12-28T09:42:08.361Z,6.03
2022-12-28T09:45:01.891Z,8.13
2022-12-28T09:47:49.962Z,5.60
2022-12-28T09:50:16.709Z,7.32
2022-12-28T09:53:17.431Z,6.13
2022-12-28T09:55:58.747Z,6.72
2022-12-28T09:58:26.013Z,11.48
2022-12-28T10:00:59.256Z,7.90
2022-12-28T10:03:35.565Z,9.82
2022-12-28T10:06:04.429Z,6.78
2022-12-28T10:08:31.694Z,7.95
2022-12-28T10:11:02.538Z,7.38
2022-12-28T10:13:54.168Z,9.18
2022-12-28T10:16:24.683Z,7.10
2022-12-28T10:18:52.563Z,5.07
2022-12-28T10:21:28.372Z,6.28
2022-12-28T10:26:47.811Z,7.38
2022-12-28T10:29:20.997Z,5.50
2022-12-28T10:32:03.213Z,7.20
2022-12-28T10:34:34.292Z,7.93
2022-12-28T10:37:15.805Z,6.47
2022-12-28T10:40:07.155Z,7.97
2022-12-28T10:42:43.407Z,7.65
2022-12-28T10:45:41.550Z,6.50
2022-12-28T10:48:32.184Z,9.38
2022-12-28T10:51:15.361Z,8.13
2022-12-28T10:56:13.213Z,13.15
2022-12-28T10:58:46.274Z,8.05
2022-12-28T11:01:13.212Z,5.85
2022-12-28T11:04:08.048Z,8.30
2022-12-28T11:06:51.184Z,6.65
2022-12-28T11:09:44.364Z,8.80
2022-12-28T11:12:29.183Z,9.18
2022-12-28T11:14:56.449Z,7.97
2022-12-28T11:17:26.733Z,10.93
2022-12-28T11:19:58.776Z,11.70
2022-12-28T11:22:28.903Z,8.88
2022-12-28T11:24:57.382Z,11.02
2022-12-28T11:27:24.921Z,13.27
2022-12-28T11:29:54.484Z,11.15
2022-12-28T11:32:33.706Z,9.75
2022-12-28T11:35:01.625Z,8.50
2022-12-28T11:37:28.545Z,10.32
2022-12-28T11:39:55.783Z,9.48
2022-12-28T11:42:39.914Z,13.18
2022-12-28T11:45:16.681Z,6.95
2022-12-28T11:47:43.655Z,10.43
2022-12-28T11:50:38.384Z,8.25
2022-12-28T11:53:45.645Z,7.63
2022-12-28T11:56:21.629Z,5.55
2022-12-28T11:59:06.113Z,6.82
2022-12-28T12:01:35.043Z,5.60
2022-12-28T12:04:01.788Z,6.55
2022-12-28T12:06:57.891Z,8.80
2022-12-28T12:09:38.695Z,6.55
2022-12-28T12:12:17.838Z,6.43
2022-12-28T12:15:12.469Z,7.13
2022-12-28T12:18:20.130Z,10.02
2022-12-28T12:21:15.578Z,5.57
2022-12-28T12:26:54.451Z,4.10
2022-12-28T12:29:29.308Z,4.47
2022-12-28T12:32:36.338Z,4.70
2022-12-28T12:35:07.000Z,6.45
2022-12-28T12:37:44.800Z,6.95
2022-12-28T12:40:49.238Z,8.20
2022-12-28T12:43:40.982Z,6.60
2022-12-28T12:46:37.075Z,7.03
2022-12-28T12:49:33.643Z,4.65
2022-12-28T12:52:42.028Z,4.38
2022-12-28T12:55:40.371Z,5.53
2022-12-28T12:58:19.576Z,7.22
2022-12-28T13:00:55.682Z,4.22
2022-12-28T13:03:46.082Z,4.40
2022-12-28T13:06:23.449Z,2.83
2022-12-28T13:09:05.073Z,4.90
2022-12-28T13:11:37.759Z,4.85
2022-12-28T13:14:05.938Z,3.95
2022-12-28T13:16:33.397Z,4.93
2022-12-28T13:19:07.288Z,5.13
2022-12-28T13:21:51.083Z,4.82
2022-12-28T13:24:24.263Z,3.75
2022-12-28T13:26:52.065Z,4.57
2022-12-28T13:29:28.937Z,7.82
2022-12-28T13:31:55.975Z,4.70
2022-12-28T13:34:35.426Z,3.22
2022-12-28T13:37:14.602Z,3.63
2022-12-28T13:39:42.593Z,2.42
2022-12-28T13:42:18.466Z,2.25
2022-12-28T13:45:00.780Z,4.05
2022-12-28T13:47:35.110Z,5.03
2022-12-28T13:50:22.106Z,2.10
2022-12-28T13:53:17.893Z,2.88
2022-12-28T13:58:49.056Z,2.63
2022-12-28T14:01:23.987Z,3.13
2022-12-28T14:06:46.830Z,3.40
2022-12-28T14:09:15.762Z,1.65
2022-12-28T14:11:45.457Z,3.20
2022-12-28T14:14:13.738Z,2.55
2022-12-28T14:16:41.245Z,2.13
2022-12-28T14:19:09.174Z,2.20
2022-12-28T14:21:45.422Z,2.75
2022-12-28T14:24:16.696Z,4.15
2022-12-28T14:26:58.141Z,3.25
2022-12-28T14:29:32.749Z,2.05
2022-12-28T14:32:03.659Z,3.38
2022-12-28T14:34:35.039Z,1.15
2022-12-28T14:37:02.415Z,3.88
2022-12-28T14:39:35.892Z,1.38
2022-12-28T14:42:19.071Z,2.13
2022-12-28T14:44:49.650Z,2.97
2022-12-28T14:47:46.791Z,2.40
2022-12-28T14:50:32.074Z,2.08
2022-12-28T14:53:20.188Z,1.77
2022-12-28T14:56:14.576Z,2.67
2022-12-28T14:58:55.514Z,2.17
2022-12-28T15:01:23.794Z,1.75
2022-12-28T15:03:52.602Z,3.40
2022-12-28T15:06:20.547Z,3.97
2022-12-28T15:08:49.912Z,6.63
2022-12-28T15:11:23.276Z,4.20
2022-12-28T15:13:50.639Z,5.80
2022-12-28T15:16:20.868Z,5.15
2022-12-28T15:18:47.772Z,7.22
2022-12-28T15:21:17.975Z,7.72
2022-12-28T15:23:52.875Z,5.50
2022-12-28T15:26:21.151Z,5.20
2022-12-28T15:28:47.923Z,8.77
2022-12-28T15:31:18.391Z,13.00
2022-12-28T15:33:45.922Z,9.05
2022-12-28T15:36:19.858Z,10.30
2022-12-28T15:38:48.818Z,12.05
2022-12-28T15:41:35.586Z,13.13
2022-12-28T15:44:04.311Z,15.98
2022-12-28T15:46:31.285Z,16.13
2022-12-28T15:49:01.963Z,12.30
2022-12-28T15:51:28.748Z,14.02
2022-12-28T15:53:55.577Z,16.45
2022-12-28T15:56:29.456Z,10.35
2022-12-28T15:58:58.677Z,13.68
2022-12-28T16:01:28.756Z,14.05
2022-12-28T16:03:58.676Z,14.70
2022-12-28T16:06:27.304Z,14.70
2022-12-28T16:08:59.877Z,13.85
2022-12-28T16:11:34.203Z,14.55
2022-12-28T16:14:05.168Z,15.95
2022-12-28T16:16:38.318Z,14.40
2022-12-28T16:19:07.177Z,16.05
2022-12-28T16:21:34.684Z,15.60
2022-12-28T16:24:02.093Z,19.63
2022-12-28T16:26:28.969Z,20.10
2022-12-28T16:28:56.896Z,21.02
2022-12-28T16:31:27.788Z,21.08
2022-12-28T16:34:03.605Z,23.77
2022-12-28T16:36:31.986Z,22.55
2022-12-28T16:38:59.056Z,19.08
2022-12-28T16:41:30.057Z,22.55
2022-12-28T16:44:05.509Z,20.17
2022-12-28T16:46:32.569Z,30.30
2022-12-28T16:49:03.685Z,27.05
2022-12-28T16:51:31.512Z,24.38
2022-12-28T16:53:58.637Z,25.33
2022-12-28T16:56:25.810Z,28.95
2022-12-28T16:58:59.397Z,28.65
2022-12-28T17:01:27.621Z,26.65
2022-12-28T17:04:01.855Z,32.67
2022-12-28T17:06:30.591Z,29.30
2022-12-28T17:08:57.398Z,28.80
2022-12-28T17:11:24.175Z,30.35
2022-12-28T17:13:50.948Z,27.83
2022-12-28T17:16:17.919Z,24.88
2022-12-28T17:18:44.737Z,35.65
2022-12-28T17:21:12.262Z,30.85
2022-12-28T17:23:40.157Z,38.33
2022-12-28T17:26:07.311Z,31.70
2022-12-28T17:28:34.193Z,30.58
2022-12-28T17:31:12.244Z,34.35
2022-12-28T17:33:40.304Z,35.72
2022-12-28T17:36:09.046Z,30.05
2022-12-28T17:38:36.094Z,29.80
2022-12-28T17:41:21.853Z,30.80
2022-12-28T17:43:52.103Z,29.83
2022-12-28T17:46:19.941Z,28.80
2022-12-28T17:48:47.335Z,29.15
2022-12-28T17:51:15.523Z,23.92
2022-12-28T17:53:42.679Z,29.65
2022-12-28T17:56:13.907Z,30.88
2022-12-28T17:58:43.385Z,25.25
2022-12-28T18:01:11.791Z,30.40
2022-12-28T18:03:39.180Z,29.35
2022-12-28T18:06:07.346Z,34.53
2022-12-28T18:08:34.124Z,33.10
2022-12-28T18:11:01.587Z,26.75
2022-12-28T18:13:28.392Z,40.72
2022-12-28T18:15:55.327Z,31.23
2022-12-28T18:18:22.683Z,37.92
2022-12-28T18:20:58.785Z,42.13
2022-12-28T18:23:28.361Z,32.15
2022-12-28T18:26:07.870Z,42.90
2022-12-28T18:28:35.372Z,37.42
2022-12-28T18:31:03.454Z,42.85
2022-12-28T18:33:31.651Z,39.28
2022-12-28T18:35:59.760Z,38.65
2022-12-28T18:38:26.579Z,37.08
2022-12-28T18:40:56.778Z,28.17
2022-12-28T18:43:24.310Z,28.08
2022-12-28T18:45:59.902Z,27.50
2022-12-28T18:48:27.868Z,26.73
2022-12-28T18:51:02.789Z,21.98
2022-12-28T18:56:11.907Z,18.20
2022-12-28T18:58:41.014Z,17.45
2022-12-28T19:01:32.920Z,13.65
2022-12-28T19:04:01.320Z,10.73
2022-12-28T19:06:29.477Z,8.10
2022-12-28T19:09:00.335Z,11.98
2022-12-28T19:11:28.127Z,8.00
2022-12-28T19:13:54.984Z,9.57
2022-12-28T19:16:27.128Z,19.83
2022-12-28T19:18:58.382Z,17.90
2022-12-28T19:21:31.908Z,26.38
2022-12-28T19:24:03.724Z,28.20
2022-12-28T19:26:32.845Z,30.25
2022-12-28T19:28:59.980Z,23.70
2022-12-28T19:31:27.951Z,26.05
2022-12-28T19:33:54.889Z,26.65
2022-12-28T19:36:21.839Z,34.83
2022-12-28T19:38:49.225Z,41.25
2022-12-28T19:41:16.673Z,33.80
2022-12-28T19:43:44.220Z,41.75
2022-12-28T19:46:16.959Z,33.03
2022-12-28T19:48:43.894Z,35.17
2022-12-28T19:51:11.735Z,32.10
2022-12-28T19:53:38.744Z,32.63
2022-12-28T19:56:09.086Z,33.53
2022-12-28T19:58:37.262Z,36.75
2022-12-28T20:01:12.033Z,42.35
2022-12-28T20:03:39.814Z,30.33
2022-12-28T20:06:09.943Z,31.83
2022-12-28T20:08:37.128Z,30.00
2022-12-28T20:11:05.325Z,29.20
2022-12-28T20:13:34.026Z,30.60
2022-12-28T20:16:01.208Z,24.08
2022-12-28T20:18:28.110Z,31.73
2022-12-28T20:21:20.136Z,18.70
2022-12-28T20:23:49.065Z,23.73
2022-12-28T20:26:17.766Z,20.05
2022-12-28T20:28:45.705Z,16.40
2022-12-28T20:31:14.708Z,26.90
2022-12-28T20:33:42.948Z,26.75
2022-12-28T20:36:16.939Z,24.42
2022-12-28T20:38:44.288Z,14.45
2022-12-28T20:41:50.447Z,17.27
2022-12-28T20:46:57.193Z,18.85
2022-12-28T20:49:26.418Z,19.63
2022-12-28T20:51:53.865Z,19.02
2022-12-28T20:54:21.760Z,19.65
2022-12-28T20:56:54.212Z,25.45
2022-12-28T20:59:21.561Z,19.60
2022-12-28T21:01:52.144Z,22.05
2022-12-28T21:04:19.163Z,21.73
2022-12-28T21:06:46.163Z,16.00
2022-12-28T21:09:13.322Z,22.65
2022-12-28T21:11:40.139Z,15.48
2022-12-28T21:14:06.990Z,15.95
2022-12-28T21:16:33.900Z,19.60
2022-12-28T21:19:00.764Z,18.17
2022-12-28T21:21:27.583Z,20.90
2022-12-28T21:23:54.396Z,25.90
2022-12-28T21:26:22.269Z,18.25
2022-12-28T21:28:49.213Z,22.63
2022-12-28T21:31:16.369Z,18.80
2022-12-28T21:33:43.330Z,22.20
2022-12-28T21:36:17.356Z,23.02
2022-12-28T21:38:47.160Z,20.27
2022-12-28T21:41:40.835Z,20.60
2022-12-28T21:44:12.568Z,18.20
2022-12-28T21:46:39.917Z,18.58
2022-12-28T21:49:07.582Z,20.83
2022-12-28T21:51:35.571Z,20.77
2022-12-28T21:54:14.357Z,26.40
2022-12-28T21:56:43.119Z,26.75
2022-12-28T21:59:12.560Z,24.48
2022-12-28T22:02:00.049Z,25.48
2022-12-28T22:04:45.804Z,25.65
2022-12-28T22:07:16.299Z,25.73
2022-12-28T22:10:02.460Z,30.60
2022-12-28T22:12:35.059Z,34.97
2022-12-28T22:15:37.554Z,24.58
2022-12-28T22:18:08.359Z,29.25
2022-12-28T22:20:38.197Z,25.50
2022-12-28T22:23:07.187Z,28.27
2022-12-28T22:25:35.749Z,23.45
2022-12-28T22:28:04.295Z,22.80
2022-12-28T22:30:32.843Z,28.90
2022-12-28T22:32:59.900Z,19.75
2022-12-28T22:35:26.763Z,23.52
2022-12-28T22:37:53.947Z,26.55
2022-12-28T22:40:22.693Z,30.15
2022-12-28T22:42:51.020Z,25.70
2022-12-28T22:45:21.549Z,26.88
2022-12-28T22:47:49.710Z,31.52
2022-12-28T22:50:18.822Z,28.42
2022-12-28T22:52:47.082Z,28.90
2022-12-28T22:55:14.229Z,26.42
2022-12-28T22:57:41.074Z,27.13
2022-12-28T23:00:12.980Z,25.92
2022-12-28T23:02:40.362Z,31.65
2022-12-28T23:05:07.748Z,29.40
2022-12-28T23:07:36.431Z,23.13
2022-12-28T23:10:04.619Z,28.45
2022-12-28T23:12:31.519Z,34.45
2022-12-28T23:15:18.898Z,27.15
2022-12-28T23:17:49.059Z,28.52
2022-12-28T23:20:35.167Z,22.75
2022-12-28T23:23:02.159Z,20.65
2022-12-28T23:25:47.475Z,20.58
2022-12-28T23:30:47.261Z,24.88
2022-12-28T23:33:15.739Z,25.67
2022-12-28T23:35:42.761Z,21.80
2022-12-28T23:38:10.179Z,21.13
2022-12-28T23:40:41.638Z,26.30
2022-12-28T23:43:08.667Z,21.90
2022-12-28T23:45:36.519Z,20.83
2022-12-28T23:48:05.855Z,25.67
2022-12-28T23:50:32.736Z,24.27
2022-12-28T23:52:59.619Z,25.70
2022-12-28T23:55:26.549Z,28.02
2022-12-28T23:57:53.323Z,20.33
